INFORMACIÓN METAR y TAF
METAR FOR UTDD
ADDS - METARS form results

(0055 UTC 29 September 2021)
Data provider http://aviationweather.gov/metar/data/
 
METAR text: UTDD 290030Z 09003MPS 7000 NSC 13/07 Q1016 R09/D NOSIG RMK QFE694/0925
Conditions at: UTDD (DUSHANBE , TJ) observed 0030 UTC 29 September 2021
Temperature: 13.0°C (55°F)
Dewpoint: 7.0°C (45°F) [RH = 67%]
Pressure (altimeter): 30.00 inches Hg (1016.0 mb)
Winds: from the E (90 degrees) at 7 MPH (6 knots; 3.1 m/s)
Visibility: 4 miles ( 7 km)
Ceiling: at least 12,000 feet AGL
Clouds: sky clear below 12,000 feet AGL
Weather: no significant weather observed at this time

METAR text: UTDD 290000Z VRB01MPS 7000 NSC 15/07 Q1016 R09/D NOSIG RMK QFE693/0925
Conditions at: UTDD (DUSHANBE , TJ) observed 0000 UTC 29 September 2021
Temperature: 15.0°C (59°F)
Dewpoint: 7.0°C (45°F) [RH = 59%]
Pressure (altimeter): 30.00 inches Hg (1016.0 mb)
Winds: variable direction winds at 2 MPH (2 knots; 1.0 m/s)
Visibility: 4 miles ( 7 km)
Ceiling: at least 12,000 feet AGL
Clouds: sky clear below 12,000 feet AGL
Weather: no significant weather observed at this time

Forecast for: UTDD (DUSHANBE , TJ)
Text: TAF UTDD 290000Z 2901/2913 VRB02MPS 5000 HZ SCT033 BKN050
Forecast period: 0100 to 1300 UTC 29 September 2021
Forecast type: FROM: standard forecast or significant change
Winds: variable direction winds at 5 MPH (4 knots; 2.1 m/s)
Visibility: 3 miles (5 km)
Ceiling: 5000 feet AGL
Clouds: scattered clouds at 3300 feet AGL
broken clouds at 5000 feet AGL
Weather: HZ  (haze)
Text: TEMPO 2901/2905 08005MPS
Forecast period: 0100 to 0500 UTC 29 September 2021
Forecast type: TEMPORARY: The following changes expected for less than half the time period
Winds: from the E (80 degrees) at 12 MPH (10 knots; 5.1 m/s)
Visibility: missing
Ceiling: unknown
Clouds: missing
Weather: no significant weather forecast for this period
Text: TEMPO 2905/2913 28005MPS
Forecast period: 0500 to 1300 UTC 29 September 2021
Forecast type: TEMPORARY: The following changes expected for less than half the time period
Winds: from the W (280 degrees) at 12 MPH (10 knots; 5.1 m/s)
Visibility: missing
Ceiling: unknown
Clouds: missing
Weather: no significant weather forecast for this period

 MAPA DE AEROPUERTO

 INFORMACIÓN DE PISTA